createdAt,value
2022-08-09T00:01:52.607Z,84.30
2022-08-09T00:04:34.399Z,82.90
2022-08-09T00:07:07.751Z,81.80
2022-08-09T00:09:40.761Z,80.70
2022-08-09T00:12:22.407Z,81.10
2022-08-09T00:14:56.721Z,81.90
2022-08-09T00:18:05.315Z,82.00
2022-08-09T00:20:16.999Z,82.60
2022-08-09T00:22:47.117Z,82.30
2022-08-09T00:25:23.188Z,81.70
2022-08-09T00:28:01.361Z,80.60
2022-08-09T00:30:32.855Z,79.30
2022-08-09T00:33:03.828Z,79.30
2022-08-09T00:35:42.895Z,79.20
2022-08-09T00:38:13.909Z,79.40
2022-08-09T00:40:53.049Z,80.10
2022-08-09T00:44:11.191Z,80.40
2022-08-09T00:46:11.069Z,79.70
2022-08-09T00:48:49.383Z,79.30
2022-08-09T00:51:19.175Z,79.10
2022-08-09T00:53:48.703Z,79.50
2022-08-09T00:56:21.361Z,79.50
2022-08-09T00:58:51.799Z,79.40
2022-08-09T01:01:25.516Z,79.50
2022-08-09T01:04:09.950Z,79.80
2022-08-09T01:06:54.207Z,80.00
2022-08-09T01:09:36.642Z,80.30
2022-08-09T01:12:14.917Z,80.20
2022-08-09T01:14:54.239Z,80.30
2022-08-09T01:17:34.145Z,80.10
2022-08-09T01:20:07.263Z,80.30
2022-08-09T01:22:55.232Z,80.40
2022-08-09T01:25:41.492Z,80.90
2022-08-09T01:28:13.780Z,80.40
2022-08-09T01:30:51.818Z,80.00
2022-08-09T01:33:25.061Z,80.40
2022-08-09T01:36:00.908Z,80.40
2022-08-09T01:38:32.041Z,80.60
2022-08-09T01:41:09.212Z,82.90
2022-08-09T01:43:51.993Z,85.20
2022-08-09T01:46:26.999Z,84.40
2022-08-09T01:49:10.324Z,82.90
2022-08-09T01:51:44.629Z,82.60
2022-08-09T01:54:27.132Z,83.90
2022-08-09T01:57:04.121Z,83.90
2022-08-09T01:59:50.816Z,84.50
2022-08-09T02:02:23.804Z,83.50
2022-08-09T02:05:05.160Z,82.30
2022-08-09T02:08:39.896Z,81.10
2022-08-09T02:10:30.019Z,82.30
2022-08-09T02:13:00.074Z,82.20
2022-08-09T02:15:49.668Z,83.10
2022-08-09T02:18:23.743Z,83.20
2022-08-09T02:20:57.239Z,82.20
2022-08-09T02:23:39.765Z,80.90
2022-08-09T02:26:24.698Z,80.60
2022-08-09T02:29:01.233Z,79.60
2022-08-09T02:31:36.399Z,79.10
2022-08-09T02:34:25.735Z,81.90
2022-08-09T02:37:04.980Z,82.20
2022-08-09T02:39:41.857Z,82.10
2022-08-09T02:42:17.838Z,82.20
2022-08-09T02:44:51.633Z,82.90
2022-08-09T02:47:24.835Z,83.40
2022-08-09T02:50:01.859Z,84.50
2022-08-09T02:52:39.195Z,84.90
2022-08-09T02:55:15.226Z,84.30
2022-08-09T02:57:59.970Z,85.40
2022-08-09T03:00:30.949Z,83.10
2022-08-09T03:03:02.288Z,81.00
2022-08-09T03:05:34.350Z,79.90
2022-08-09T03:08:05.811Z,79.90
2022-08-09T03:10:36.616Z,79.70
2022-08-09T03:13:08.551Z,79.80
2022-08-09T03:16:06.650Z,81.10
2022-08-09T03:18:31.795Z,82.80
2022-08-09T03:21:01.993Z,82.50
2022-08-09T03:23:31.187Z,83.60
2022-08-09T03:26:03.573Z,83.80
2022-08-09T03:28:36.052Z,84.00
2022-08-09T03:31:10.413Z,84.00
2022-08-09T03:33:54.085Z,82.90
2022-08-09T03:36:27.796Z,81.00
2022-08-09T03:38:57.179Z,80.60
2022-08-09T03:41:30.240Z,79.00
2022-08-09T03:44:15.452Z,78.10
2022-08-09T03:46:44.567Z,77.20
2022-08-09T03:49:19.329Z,77.40
2022-08-09T03:51:58.469Z,78.00
2022-08-09T03:54:32.513Z,77.90
2022-08-09T03:57:17.867Z,78.80
2022-08-09T03:59:53.632Z,78.40
2022-08-09T04:02:26.673Z,86.40
2022-08-09T04:05:05.055Z,86.50
2022-08-09T04:07:53.071Z,87.50
2022-08-09T04:10:28.998Z,85.40
2022-08-09T04:13:04.414Z,85.20
2022-08-09T04:15:52.095Z,84.40
2022-08-09T04:18:25.142Z,85.20
2022-08-09T04:20:56.330Z,86.20
2022-08-09T04:23:25.714Z,85.50
2022-08-09T04:25:55.495Z,85.80
2022-08-09T04:28:32.953Z,85.00
2022-08-09T04:31:08.672Z,85.00
2022-08-09T04:33:51.930Z,84.90
2022-08-09T04:36:25.361Z,85.90
2022-08-09T04:38:54.930Z,84.90
2022-08-09T04:41:32.416Z,84.90
2022-08-09T04:44:05.800Z,85.40
2022-08-09T04:46:57.171Z,84.70
2022-08-09T04:49:40.363Z,83.20
2022-08-09T04:52:18.532Z,83.80
2022-08-09T04:54:52.643Z,82.60
2022-08-09T04:57:24.128Z,84.70
2022-08-09T04:59:54.789Z,85.40
2022-08-09T05:02:23.935Z,86.40
2022-08-09T05:04:56.572Z,87.50
2022-08-09T05:07:29.326Z,87.50
2022-08-09T05:10:01.758Z,86.20
2022-08-09T05:12:32.990Z,87.20
2022-08-09T05:15:11.663Z,88.80
2022-08-09T05:18:37.956Z,90.00
2022-08-09T05:20:40.971Z,87.50
2022-08-09T05:23:54.880Z,86.30
2022-08-09T05:25:59.517Z,86.00
2022-08-09T05:28:28.016Z,83.30
2022-08-09T05:30:56.621Z,82.80
2022-08-09T05:33:32.793Z,81.70
2022-08-09T05:36:04.144Z,81.80
2022-08-09T05:38:39.081Z,80.70
2022-08-09T05:41:12.606Z,80.90
2022-08-09T05:43:45.212Z,80.50
2022-08-09T05:46:18.289Z,81.40
2022-08-09T05:48:58.453Z,79.00
2022-08-09T05:51:42.780Z,79.90
2022-08-09T05:54:17.962Z,78.20
2022-08-09T05:56:55.379Z,76.90
2022-08-09T05:59:25.287Z,76.10
2022-08-09T06:01:58.761Z,75.70
2022-08-09T06:04:34.871Z,76.40
2022-08-09T06:07:03.907Z,74.40
2022-08-09T06:09:53.886Z,74.70
2022-08-09T06:12:22.579Z,76.60
2022-08-09T06:14:55.153Z,75.30
2022-08-09T06:17:39.992Z,74.60
2022-08-09T06:20:10.373Z,74.80
2022-08-09T06:22:40.176Z,73.80
2022-08-09T06:25:14.550Z,73.50
2022-08-09T06:27:51.622Z,73.70
2022-08-09T06:30:20.738Z,74.90
2022-08-09T06:33:13.539Z,75.30
2022-08-09T06:35:57.035Z,76.00
2022-08-09T06:38:32.238Z,75.70
2022-08-09T06:41:18.636Z,76.50
2022-08-09T06:43:48.369Z,76.70
2022-08-09T06:46:40.162Z,76.60
2022-08-09T06:49:06.002Z,76.60
2022-08-09T06:51:39.022Z,77.00
2022-08-09T06:54:09.278Z,77.20
2022-08-09T06:56:46.490Z,77.20
2022-08-09T07:00:50.844Z,77.10
2022-08-09T07:02:04.924Z,77.20
2022-08-09T07:04:34.218Z,77.20
2022-08-09T07:07:04.913Z,77.80
2022-08-09T07:09:57.281Z,77.70
2022-08-09T07:12:38.580Z,77.60
2022-08-09T07:16:35.300Z,77.40
2022-08-09T07:18:02.261Z,77.90
2022-08-09T07:20:31.264Z,77.70
2022-08-09T07:23:00.196Z,76.70
2022-08-09T07:25:29.838Z,76.60
2022-08-09T07:28:12.237Z,76.40
2022-08-09T07:30:47.665Z,76.10
2022-08-09T07:33:17.176Z,76.20
2022-08-09T07:35:53.807Z,76.10
2022-08-09T07:38:23.667Z,75.90
2022-08-09T07:41:08.388Z,75.20
2022-08-09T07:43:49.921Z,74.80
2022-08-09T07:46:27.820Z,74.80
2022-08-09T07:48:59.361Z,75.20
2022-08-09T07:52:06.366Z,74.30
2022-08-09T07:54:28.322Z,74.10
2022-08-09T07:56:59.604Z,74.20
2022-08-09T07:59:45.473Z,74.00
2022-08-09T08:02:20.361Z,73.20
2022-08-09T08:04:49.474Z,72.70
2022-08-09T08:08:43.397Z,72.30
2022-08-09T08:10:12.422Z,71.80
2022-08-09T08:12:45.610Z,72.10
2022-08-09T08:15:18.079Z,71.30
2022-08-09T08:17:57.962Z,69.30
2022-08-09T08:20:32.349Z,68.50
2022-08-09T08:23:16.211Z,69.40
2022-08-09T08:25:49.943Z,70.00
2022-08-09T08:28:25.595Z,70.00
2022-08-09T08:31:14.355Z,69.90
2022-08-09T08:33:53.161Z,68.90
2022-08-09T08:36:29.651Z,68.10
2022-08-09T08:39:00.393Z,68.30
2022-08-09T08:41:30.843Z,67.40
2022-08-09T08:44:23.035Z,66.80
2022-08-09T08:46:59.934Z,66.20
2022-08-09T08:49:38.580Z,66.60
2022-08-09T08:52:48.528Z,66.20
2022-08-09T08:55:05.546Z,65.30
2022-08-09T08:57:37.296Z,64.90
2022-08-09T09:00:17.119Z,64.30
2022-08-09T09:02:55.343Z,64.50
2022-08-09T09:05:57.562Z,63.90
2022-08-09T09:08:31.146Z,64.00
2022-08-09T09:11:04.045Z,63.60
2022-08-09T09:13:54.836Z,63.80
2022-08-09T09:16:30.787Z,63.50
2022-08-09T09:19:37.688Z,63.20
2022-08-09T09:22:03.946Z,61.60
2022-08-09T09:24:37.833Z,61.10
2022-08-09T09:27:09.120Z,60.60
2022-08-09T09:30:12.014Z,60.30
2022-08-09T09:32:39.583Z,60.40
2022-08-09T09:35:13.003Z,59.90
2022-08-09T09:37:49.033Z,59.90
2022-08-09T09:40:18.798Z,59.90
2022-08-09T09:42:57.002Z,59.00
2022-08-09T09:45:29.155Z,59.10
2022-08-09T09:48:04.964Z,59.40
2022-08-09T09:50:50.535Z,57.50
2022-08-09T09:53:43.857Z,57.80
2022-08-09T09:56:31.038Z,58.10
2022-08-09T09:59:00.134Z,57.00
2022-08-09T10:01:31.244Z,57.60
2022-08-09T10:04:15.769Z,56.60
2022-08-09T10:06:53.835Z,54.80
2022-08-09T10:09:24.191Z,55.90
2022-08-09T10:12:14.804Z,53.00
2022-08-09T10:14:51.940Z,51.70
2022-08-09T10:17:40.721Z,51.80
2022-08-09T10:20:26.890Z,50.20
2022-08-09T10:23:17.292Z,47.80
2022-08-09T10:26:07.417Z,48.70
2022-08-09T10:28:43.313Z,49.20
2022-08-09T10:34:32.538Z,49.90
2022-08-09T10:36:57.895Z,50.50
2022-08-09T10:39:28.998Z,51.00
2022-08-09T10:41:58.603Z,51.10
2022-08-09T10:44:30.606Z,49.40
2022-08-09T10:48:16.189Z,48.50
2022-08-09T10:50:30.710Z,49.20
2022-08-09T10:53:11.062Z,48.60
2022-08-09T10:55:55.444Z,48.60
2022-08-09T10:58:33.846Z,47.70
2022-08-09T11:03:03.325Z,49.20
2022-08-09T11:04:30.693Z,51.60
2022-08-09T11:07:57.062Z,50.60
2022-08-09T11:11:00.898Z,49.10
2022-08-09T11:13:50.020Z,47.40
2022-08-09T11:16:37.737Z,54.10
2022-08-09T11:19:10.312Z,56.30
2022-08-09T11:21:55.210Z,57.00
2022-08-09T11:24:27.112Z,57.30
2022-08-09T11:26:59.758Z,57.00
2022-08-09T11:30:05.662Z,57.00
2022-08-09T11:32:45.716Z,57.10
2022-08-09T11:35:22.719Z,57.30
2022-08-09T11:37:58.378Z,57.40
2022-08-09T11:40:32.383Z,57.90
2022-08-09T11:43:04.022Z,58.20
2022-08-09T11:45:42.338Z,58.40
2022-08-09T11:48:26.612Z,58.40
2022-08-09T11:52:49.238Z,58.60
2022-08-09T11:54:28.668Z,58.90
2022-08-09T11:57:47.972Z,58.90
2022-08-09T12:00:36.048Z,59.00
2022-08-09T12:03:09.937Z,58.60
2022-08-09T12:05:58.430Z,58.70
2022-08-09T12:08:35.356Z,59.60
2022-08-09T12:11:04.327Z,58.60
2022-08-09T12:14:07.078Z,58.00
2022-08-09T12:16:39.959Z,65.00
2022-08-09T12:19:12.338Z,69.10
2022-08-09T12:21:50.118Z,67.50
2022-08-09T12:24:24.360Z,69.20
2022-08-09T12:29:14.241Z,72.70
2022-08-09T12:30:04.405Z,80.30
2022-08-09T12:32:48.749Z,84.00
2022-08-09T12:35:21.552Z,87.20
2022-08-09T12:37:52.523Z,90.10
2022-08-09T12:40:27.392Z,90.90
2022-08-09T12:42:57.105Z,90.90
2022-08-09T12:45:32.183Z,91.30
2022-08-09T12:48:07.887Z,91.90
2022-08-09T12:50:41.167Z,93.30
2022-08-09T12:53:36.684Z,95.20
2022-08-09T12:56:43.111Z,97.90
2022-08-09T12:59:10.208Z,96.80
2022-08-09T13:01:46.770Z,96.00
2022-08-09T13:04:35.826Z,94.80
2022-08-09T13:07:16.743Z,94.00
2022-08-09T13:09:55.010Z,94.70
2022-08-09T13:12:24.908Z,94.40
2022-08-09T13:14:55.145Z,95.10
2022-08-09T13:17:44.471Z,94.40
2022-08-09T13:20:22.807Z,94.60
2022-08-09T13:23:01.542Z,93.90
2022-08-09T13:25:42.492Z,91.50
2022-08-09T13:28:24.574Z,92.20
2022-08-09T13:32:14.048Z,92.90
2022-08-09T13:33:57.855Z,92.80
2022-08-09T13:36:42.380Z,93.70
2022-08-09T13:41:20.954Z,93.20
2022-08-09T13:42:03.398Z,93.20
2022-08-09T13:44:33.469Z,92.90
2022-08-09T13:47:26.888Z,92.50
2022-08-09T13:49:58.235Z,92.80
2022-08-09T13:52:33.995Z,93.40
2022-08-09T13:55:07.362Z,93.00
2022-08-09T13:57:39.821Z,92.50
2022-08-09T14:00:12.992Z,92.20
2022-08-09T14:03:03.222Z,91.60
2022-08-09T14:05:56.544Z,90.70
2022-08-09T14:08:22.395Z,89.70
2022-08-09T14:10:53.081Z,89.80
2022-08-09T14:14:15.946Z,89.90
2022-08-09T14:16:15.117Z,90.00
2022-08-09T14:18:50.444Z,90.00
2022-08-09T14:21:22.315Z,89.10
2022-08-09T14:23:56.991Z,86.40
2022-08-09T14:26:33.544Z,85.40
2022-08-09T14:29:08.245Z,85.10
2022-08-09T14:31:55.362Z,83.70
2022-08-09T14:34:31.910Z,83.10
2022-08-09T14:37:06.002Z,81.80
2022-08-09T14:39:40.217Z,81.30
2022-08-09T14:42:31.744Z,81.00
2022-08-09T14:46:40.248Z,81.40
2022-08-09T14:47:58.495Z,80.50
2022-08-09T14:50:30.774Z,78.20
2022-08-09T14:53:00.472Z,76.20
2022-08-09T14:55:32.057Z,76.20
2022-08-09T14:58:03.664Z,74.70
2022-08-09T15:00:34.410Z,74.40
2022-08-09T15:03:06.793Z,73.50
2022-08-09T15:05:36.588Z,73.70
2022-08-09T15:08:05.742Z,74.40
2022-08-09T15:10:37.069Z,74.00
2022-08-09T15:13:08.674Z,73.80
2022-08-09T15:15:38.855Z,73.50
2022-08-09T15:18:13.967Z,72.40
2022-08-09T15:22:01.393Z,70.80
2022-08-09T15:24:02.371Z,70.10
2022-08-09T15:26:31.475Z,70.40
2022-08-09T15:29:04.955Z,71.60
2022-08-09T15:31:40.779Z,70.20
2022-08-09T15:34:32.532Z,70.00
2022-08-09T15:37:04.371Z,69.60
2022-08-09T15:39:34.707Z,68.50
2022-08-09T15:42:20.049Z,67.40
2022-08-09T15:44:50.793Z,66.80
2022-08-09T15:47:22.918Z,67.30
2022-08-09T15:50:04.978Z,68.20
2022-08-09T15:52:37.037Z,69.30
2022-08-09T15:55:07.618Z,70.50
2022-08-09T15:57:44.440Z,71.10
2022-08-09T16:00:25.439Z,72.30
2022-08-09T16:02:56.066Z,71.60
2022-08-09T16:05:47.172Z,71.10
2022-08-09T16:08:29.708Z,70.00
2022-08-09T16:11:02.158Z,67.80
2022-08-09T16:14:02.930Z,66.60
2022-08-09T16:16:26.060Z,66.00
2022-08-09T16:18:57.543Z,64.60
2022-08-09T16:21:31.713Z,62.00
2022-08-09T16:24:04.623Z,61.90
2022-08-09T16:26:36.277Z,60.80
2022-08-09T16:29:12.427Z,60.00
2022-08-09T16:32:19.578Z,60.40
2022-08-09T16:34:54.982Z,61.40
2022-08-09T16:37:55.989Z,62.80
2022-08-09T16:40:20.527Z,63.70
2022-08-09T16:42:59.392Z,64.20
2022-08-09T16:45:33.122Z,64.60
2022-08-09T16:48:43.169Z,65.00
2022-08-09T16:50:59.007Z,65.40
2022-08-09T16:53:34.140Z,64.50
2022-08-09T16:56:09.712Z,65.20
2022-08-09T16:58:49.926Z,66.30
2022-08-09T17:01:23.794Z,66.80
2022-08-09T17:03:54.009Z,67.10
2022-08-09T17:06:31.304Z,66.90
2022-08-09T17:09:45.626Z,67.20
2022-08-09T17:11:52.538Z,67.00
2022-08-09T17:14:28.074Z,67.00
2022-08-09T17:17:01.380Z,66.40
2022-08-09T17:19:47.254Z,66.80
2022-08-09T17:22:23.614Z,66.70
2022-08-09T17:24:55.280Z,66.60
2022-08-09T17:27:24.469Z,66.90
2022-08-09T17:29:54.747Z,67.20
2022-08-09T17:32:34.867Z,67.50
2022-08-09T17:35:11.423Z,68.00
2022-08-09T17:38:14.612Z,68.70
2022-08-09T17:40:31.958Z,69.20
2022-08-09T17:43:10.541Z,69.50
2022-08-09T17:46:03.231Z,69.80
2022-08-09T17:48:38.802Z,70.20
2022-08-09T17:51:18.338Z,70.70
2022-08-09T17:53:53.608Z,70.40
2022-08-09T17:56:27.668Z,71.80
2022-08-09T17:58:59.678Z,71.10
2022-08-09T18:01:58.146Z,71.40
2022-08-09T18:04:20.307Z,71.40
2022-08-09T18:06:54.453Z,70.20
2022-08-09T18:09:41.088Z,69.90
2022-08-09T18:12:18.140Z,69.80
2022-08-09T18:14:55.050Z,74.80
2022-08-09T18:18:01.626Z,79.00
2022-08-09T18:20:55.132Z,78.30
2022-08-09T18:23:08.361Z,76.90
2022-08-09T18:25:57.692Z,76.80
2022-08-09T18:30:41.161Z,77.50
2022-08-09T18:31:24.708Z,77.40
2022-08-09T18:34:01.137Z,78.70
2022-08-09T18:36:32.506Z,80.00
2022-08-09T18:39:03.759Z,81.40
2022-08-09T18:41:34.309Z,83.00
2022-08-09T18:44:10.711Z,87.00
2022-08-09T18:46:47.707Z,90.00
2022-08-09T18:49:23.821Z,90.90
2022-08-09T18:51:55.017Z,92.20
2022-08-09T18:54:29.473Z,93.50
2022-08-09T18:57:05.817Z,93.70
2022-08-09T18:59:37.286Z,94.20
2022-08-09T19:02:07.391Z,95.00
2022-08-09T19:04:36.018Z,95.40
2022-08-09T19:07:06.220Z,95.70
2022-08-09T19:10:14.173Z,95.90
2022-08-09T19:12:27.905Z,96.20
2022-08-09T19:14:57.581Z,95.50
2022-08-09T19:17:31.083Z,95.30
2022-08-09T19:20:01.104Z,95.70
2022-08-09T19:22:32.431Z,95.90
2022-08-09T19:25:10.004Z,96.30
2022-08-09T19:27:50.955Z,96.10
2022-08-09T19:30:28.300Z,96.90
2022-08-09T19:32:57.421Z,96.80
2022-08-09T19:35:27.651Z,96.30
2022-08-09T19:38:17.610Z,96.20
2022-08-09T19:40:46.423Z,95.70
2022-08-09T19:44:01.953Z,95.80
2022-08-09T19:46:14.457Z,95.80
2022-08-09T19:49:01.917Z,95.70
2022-08-09T19:51:32.536Z,95.60
2022-08-09T19:54:08.589Z,95.20
2022-08-09T19:56:44.578Z,95.10
2022-08-09T19:59:39.535Z,95.30
2022-08-09T20:02:17.314Z,94.80
2022-08-09T20:04:55.261Z,94.60
2022-08-09T20:07:24.524Z,94.80
2022-08-09T20:09:54.431Z,93.40
2022-08-09T20:12:30.301Z,92.40
2022-08-09T20:16:33.818Z,92.70
2022-08-09T20:18:00.937Z,93.10
2022-08-09T20:20:29.561Z,92.80
2022-08-09T20:22:58.539Z,92.90
2022-08-09T20:25:30.207Z,92.70
2022-08-09T20:28:24.524Z,93.10
2022-08-09T20:31:04.819Z,93.00
2022-08-09T20:33:38.958Z,91.80
2022-08-09T20:36:10.610Z,91.60
2022-08-09T20:41:34.889Z,91.50
2022-08-09T20:44:10.035Z,92.20
2022-08-09T20:46:44.450Z,92.00
2022-08-09T20:49:14.094Z,91.10
2022-08-09T20:51:50.436Z,91.00
2022-08-09T20:54:19.616Z,91.10
2022-08-09T20:56:53.693Z,90.70
2022-08-09T20:59:50.257Z,90.50
2022-08-09T21:02:11.947Z,90.30
2022-08-09T21:05:57.234Z,90.60
2022-08-09T21:07:40.305Z,90.50
2022-08-09T21:10:12.045Z,90.60
2022-08-09T21:15:34.488Z,91.10
2022-08-09T21:18:29.902Z,90.80
2022-08-09T21:20:55.934Z,90.80
2022-08-09T21:23:26.410Z,90.70
2022-08-09T21:26:15.595Z,90.60
2022-08-09T21:28:55.818Z,91.40
2022-08-09T21:31:48.058Z,92.80
2022-08-09T21:34:21.131Z,95.40
2022-08-09T21:36:58.681Z,95.70
2022-08-09T21:39:28.127Z,96.20
2022-08-09T21:42:11.201Z,96.00
2022-08-09T21:44:42.769Z,94.70
2022-08-09T21:47:17.610Z,94.70
2022-08-09T21:49:48.230Z,95.00
2022-08-09T21:52:20.549Z,95.20
2022-08-09T21:55:03.112Z,94.90
2022-08-09T21:57:38.126Z,94.90
2022-08-09T22:00:32.680Z,94.50
2022-08-09T22:03:04.888Z,95.00
2022-08-09T22:05:42.037Z,95.00
2022-08-09T22:08:15.196Z,95.00
2022-08-09T22:11:49.108Z,95.30
2022-08-09T22:13:35.396Z,97.00
2022-08-09T22:16:08.865Z,98.10
2022-08-09T22:18:54.390Z,97.80
2022-08-09T22:21:45.222Z,98.30
2022-08-09T22:24:17.103Z,98.40
2022-08-09T22:26:51.088Z,98.30
2022-08-09T22:29:24.020Z,97.70
2022-08-09T22:31:58.344Z,98.60
2022-08-09T22:34:27.429Z,99.30
2022-08-09T22:36:56.455Z,99.50
2022-08-09T22:39:55.928Z,99.90
2022-08-09T22:42:22.350Z,99.70
2022-08-09T22:48:05.933Z,99.90
2022-08-09T22:48:10.861Z,99.90
2022-08-09T22:50:33.326Z,99.90
2022-08-09T22:53:03.756Z,99.80
2022-08-09T22:56:07.273Z,99.40
2022-08-09T22:58:32.269Z,98.50
2022-08-09T23:01:02.379Z,97.90
2022-08-09T23:04:05.265Z,97.30
2022-08-09T23:06:30.118Z,96.60
2022-08-09T23:09:06.046Z,96.80
2022-08-09T23:11:34.689Z,97.10
2022-08-09T23:14:09.800Z,97.20
2022-08-09T23:16:45.837Z,98.00
2022-08-09T23:19:15.755Z,98.20
2022-08-09T23:21:44.572Z,97.90
2022-08-09T23:24:13.278Z,97.70
2022-08-09T23:26:42.125Z,97.10
2022-08-09T23:29:13.879Z,96.40
2022-08-09T23:31:42.968Z,97.10
2022-08-09T23:34:11.523Z,95.50
2022-08-09T23:36:41.524Z,94.70
2022-08-09T23:39:10.113Z,95.20
2022-08-09T23:41:38.703Z,95.60
2022-08-09T23:44:07.326Z,95.00
2022-08-09T23:46:35.980Z,96.10
2022-08-09T23:49:05.126Z,95.50
2022-08-09T23:51:33.752Z,94.60
2022-08-09T23:54:03.791Z,94.00
2022-08-09T23:56:53.492Z,93.80
2022-08-09T23:59:22.645Z,93.80
